createdAt,value
2023-04-16T00:00:49.643Z,100690.51
2023-04-16T00:03:22.089Z,100691.02
2023-04-16T00:05:56.112Z,100694.69
2023-04-16T00:08:28.015Z,100694.08
2023-04-16T00:10:59.266Z,100692.95
2023-04-16T00:13:30.730Z,100691.00
2023-04-16T00:16:02.366Z,100691.27
2023-04-16T00:18:33.777Z,100690.15
2023-04-16T00:21:05.590Z,100691.14
2023-04-16T00:23:37.329Z,100685.29
2023-04-16T00:26:09.838Z,100687.87
2023-04-16T00:28:42.932Z,100683.23
2023-04-16T00:31:14.299Z,100679.73
2023-04-16T00:33:46.182Z,100677.08
2023-04-16T00:36:17.767Z,100674.30
2023-04-16T00:38:49.132Z,100669.86
2023-04-16T00:41:21.038Z,100669.32
2023-04-16T00:43:53.044Z,100671.62
2023-04-16T00:46:25.398Z,100670.88
2023-04-16T00:48:57.552Z,100671.70
2023-04-16T00:51:29.254Z,100665.39
2023-04-16T00:54:00.694Z,100665.36
2023-04-16T00:56:32.180Z,100664.38
2023-04-16T00:59:03.812Z,100662.46
2023-04-16T01:01:35.093Z,100662.08
2023-04-16T01:04:08.421Z,100660.19
2023-04-16T01:06:39.676Z,100657.48
2023-04-16T01:09:12.105Z,100655.45
2023-04-16T01:11:43.519Z,100660.11
2023-04-16T01:14:14.923Z,100660.75
2023-04-16T01:16:46.340Z,100658.97
2023-04-16T01:19:19.762Z,100668.16
2023-04-16T01:21:51.705Z,100666.61
2023-04-16T01:24:22.831Z,100667.30
2023-04-16T01:26:53.831Z,100670.27
2023-04-16T01:29:25.563Z,100670.87
2023-04-16T01:31:59.267Z,100673.09
2023-04-16T01:34:33.979Z,100675.58
2023-04-16T01:37:06.728Z,100670.35
2023-04-16T01:39:38.167Z,100669.45
2023-04-16T01:42:09.636Z,100671.67
2023-04-16T01:44:41.329Z,100674.30
2023-04-16T01:47:13.010Z,100672.50
2023-04-16T01:49:45.807Z,100667.60
2023-04-16T01:52:17.032Z,100675.20
2023-04-16T01:54:48.537Z,100664.91
2023-04-16T01:57:19.781Z,100671.42
2023-04-16T01:59:51.167Z,100670.98
2023-04-16T02:02:28.454Z,100673.16
2023-04-16T02:05:00.729Z,100669.58
2023-04-16T02:07:33.276Z,100671.48
2023-04-16T02:10:05.418Z,100667.09
2023-04-16T02:12:37.648Z,100667.61
2023-04-16T02:15:11.481Z,100666.02
2023-04-16T02:17:43.300Z,100668.98
2023-04-16T02:20:16.106Z,100666.71
2023-04-16T02:22:53.338Z,100666.79
2023-04-16T02:25:26.835Z,100667.64
2023-04-16T02:27:59.416Z,100668.40
2023-04-16T02:30:43.378Z,100669.05
2023-04-16T02:33:16.543Z,100666.13
2023-04-16T02:35:56.948Z,100666.70
2023-04-16T02:38:28.259Z,100668.44
2023-04-16T02:40:59.807Z,100669.66
2023-04-16T02:43:31.287Z,100670.02
2023-04-16T02:46:03.005Z,100668.59
2023-04-16T02:48:34.583Z,100668.42
2023-04-16T02:51:06.167Z,100667.09
2023-04-16T02:53:37.951Z,100672.25
2023-04-16T02:56:10.501Z,100671.90
2023-04-16T02:58:41.751Z,100673.40
2023-04-16T03:01:13.413Z,100671.17
2023-04-16T03:03:45.085Z,100675.64
2023-04-16T03:06:16.626Z,100672.52
2023-04-16T03:08:48.108Z,100674.98
2023-04-16T03:11:20.409Z,100673.03
2023-04-16T03:13:52.096Z,100678.98
2023-04-16T03:16:23.463Z,100678.90
2023-04-16T03:18:54.871Z,100677.41
2023-04-16T03:21:27.715Z,100678.63
2023-04-16T03:23:59.214Z,100675.77
2023-04-16T03:26:30.865Z,100672.87
2023-04-16T03:29:03.556Z,100677.54
2023-04-16T03:31:35.779Z,100678.67
2023-04-16T03:34:08.043Z,100678.92
2023-04-16T03:36:39.491Z,100678.27
2023-04-16T03:39:11.448Z,100678.19
2023-04-16T03:41:43.164Z,100678.74
2023-04-16T03:44:15.030Z,100679.55
2023-04-16T03:46:46.923Z,100680.11
2023-04-16T03:49:18.712Z,100683.63
2023-04-16T03:51:49.964Z,100682.00
2023-04-16T03:54:22.872Z,100689.82
2023-04-16T03:56:58.457Z,100690.02
2023-04-16T03:59:30.035Z,100690.38
2023-04-16T04:02:02.161Z,100686.36
2023-04-16T04:04:33.838Z,100689.58
2023-04-16T04:07:05.303Z,100691.36
2023-04-16T04:09:36.862Z,100694.99
2023-04-16T04:12:08.305Z,100697.00
2023-04-16T04:14:40.187Z,100698.33
2023-04-16T04:17:12.253Z,100691.67
2023-04-16T04:19:54.335Z,100691.05
2023-04-16T04:22:32.250Z,100694.11
2023-04-16T04:25:04.170Z,100697.40
2023-04-16T04:27:37.204Z,100700.02
2023-04-16T04:30:11.440Z,100697.56
2023-04-16T04:32:43.741Z,100697.89
2023-04-16T04:35:15.935Z,100701.81
2023-04-16T04:37:47.496Z,100704.64
2023-04-16T04:40:22.736Z,100705.02
2023-04-16T04:42:54.228Z,100705.69
2023-04-16T04:45:28.996Z,100709.31
2023-04-16T04:48:01.645Z,100707.86
2023-04-16T04:50:35.095Z,100708.81
2023-04-16T04:53:10.316Z,100709.73
2023-04-16T04:55:42.723Z,100708.09
2023-04-16T04:58:14.208Z,100714.79
2023-04-16T05:00:46.243Z,100719.27
2023-04-16T05:03:22.740Z,100723.33
2023-04-16T05:05:53.701Z,100727.48
2023-04-16T05:08:25.594Z,100724.48
2023-04-16T05:10:56.993Z,100726.04
2023-04-16T05:13:28.382Z,100732.52
2023-04-16T05:16:00.132Z,100742.33
2023-04-16T05:18:32.881Z,100744.47
2023-04-16T05:21:04.220Z,100745.30
2023-04-16T05:23:35.576Z,100748.43
2023-04-16T05:26:07.347Z,100749.48
2023-04-16T05:28:39.113Z,100748.31
2023-04-16T05:31:10.249Z,100751.13
2023-04-16T05:33:41.586Z,100752.33
2023-04-16T05:36:13.508Z,100752.89
2023-04-16T05:38:45.168Z,100759.09
2023-04-16T05:41:16.347Z,100760.01
2023-04-16T05:43:47.752Z,100760.28
2023-04-16T05:46:19.242Z,100759.77
2023-04-16T05:48:50.862Z,100763.06
2023-04-16T05:51:24.884Z,100770.06
2023-04-16T05:53:56.226Z,100776.36
2023-04-16T05:56:27.594Z,100781.42
2023-04-16T05:58:58.768Z,100775.27
2023-04-16T06:01:29.781Z,100780.08
2023-04-16T06:04:01.311Z,100780.91
2023-04-16T06:06:32.837Z,100783.71
2023-04-16T06:09:04.761Z,100784.38
2023-04-16T06:11:36.542Z,100785.67
2023-04-16T06:14:08.132Z,100790.27
2023-04-16T06:16:39.446Z,100791.14
2023-04-16T06:19:10.738Z,100792.02
2023-04-16T06:21:42.271Z,100794.27
2023-04-16T06:24:14.532Z,100794.61
2023-04-16T06:26:46.017Z,100798.71
2023-04-16T06:29:17.514Z,100801.48
2023-04-16T06:31:49.705Z,100798.27
2023-04-16T06:34:21.940Z,100798.55
2023-04-16T06:36:53.303Z,100796.57
2023-04-16T06:39:24.733Z,100795.56
2023-04-16T06:41:56.211Z,100794.27
2023-04-16T06:44:27.568Z,100797.55
2023-04-16T06:46:58.963Z,100793.98
2023-04-16T06:49:30.515Z,100795.52
2023-04-16T06:52:03.858Z,100794.60
2023-04-16T06:54:36.947Z,100797.83
2023-04-16T06:57:08.275Z,100797.85
2023-04-16T06:59:39.329Z,100799.80
2023-04-16T07:02:12.182Z,100802.16
2023-04-16T07:04:43.468Z,100808.08
2023-04-16T07:07:14.708Z,100810.90
2023-04-16T07:09:46.268Z,100813.11
2023-04-16T07:12:17.799Z,100812.64
2023-04-16T07:14:49.435Z,100801.62
2023-04-16T07:17:20.970Z,100800.52
2023-04-16T07:19:52.981Z,100800.86
2023-04-16T07:22:24.843Z,100802.17
2023-04-16T07:24:56.702Z,100808.23
2023-04-16T07:27:28.830Z,100811.42
2023-04-16T07:30:00.035Z,100812.84
2023-04-16T07:32:31.328Z,100818.03
2023-04-16T07:35:04.052Z,100819.15
2023-04-16T07:37:35.289Z,100824.60
2023-04-16T07:40:07.586Z,100821.33
2023-04-16T07:42:39.010Z,100820.15
2023-04-16T07:45:12.451Z,100824.30
2023-04-16T07:47:44.028Z,100819.73
2023-04-16T07:50:16.557Z,100824.90
2023-04-16T07:52:48.270Z,100823.33
2023-04-16T07:55:19.970Z,100827.57
2023-04-16T07:57:51.313Z,100827.70
2023-04-16T08:00:22.725Z,100832.87
2023-04-16T08:02:54.396Z,100831.65
2023-04-16T08:05:26.015Z,100833.21
2023-04-16T08:07:57.579Z,100835.43
2023-04-16T08:10:28.982Z,100838.96
2023-04-16T08:13:01.861Z,100843.27
2023-04-16T08:15:33.669Z,100842.59
2023-04-16T08:18:06.047Z,100838.46
2023-04-16T08:20:37.705Z,100843.35
2023-04-16T08:23:09.066Z,100847.23
2023-04-16T08:25:40.416Z,100846.96
2023-04-16T08:28:12.215Z,100852.20
2023-04-16T08:30:43.402Z,100857.46
2023-04-16T08:33:15.794Z,100851.76
2023-04-16T08:35:47.387Z,100851.95
2023-04-16T08:38:18.744Z,100856.68
2023-04-16T08:40:50.734Z,100857.16
2023-04-16T08:43:24.790Z,100855.44
2023-04-16T08:45:58.108Z,100853.38
2023-04-16T08:48:34.389Z,100858.77
2023-04-16T08:51:07.540Z,100862.92
2023-04-16T08:53:50.586Z,100866.33
2023-04-16T08:56:25.129Z,100871.89
2023-04-16T08:58:58.510Z,100870.35
2023-04-16T09:01:30.085Z,100871.70
2023-04-16T09:04:02.522Z,100870.13
2023-04-16T09:06:34.667Z,100870.52
2023-04-16T09:09:08.430Z,100878.31
2023-04-16T09:11:40.782Z,100884.66
2023-04-16T09:14:13.678Z,100885.79
2023-04-16T09:16:46.737Z,100888.27
2023-04-16T09:19:21.053Z,100888.50
2023-04-16T09:21:53.024Z,100891.15
2023-04-16T09:24:25.351Z,100897.10
2023-04-16T09:26:58.547Z,100894.79
2023-04-16T09:29:40.915Z,100895.58
2023-04-16T09:32:14.005Z,100897.36
2023-04-16T09:34:59.908Z,100894.61
2023-04-16T09:37:33.205Z,100900.30
2023-04-16T09:40:06.043Z,100904.16
2023-04-16T09:42:38.970Z,100903.39
2023-04-16T09:45:11.737Z,100896.14
2023-04-16T09:47:45.265Z,100902.98
2023-04-16T09:50:20.388Z,100904.86
2023-04-16T09:52:53.662Z,100904.70
2023-04-16T09:55:30.343Z,100906.38
2023-04-16T09:58:05.204Z,100901.08
2023-04-16T10:00:43.279Z,100907.42
2023-04-16T10:03:16.220Z,100907.52
2023-04-16T10:06:15.526Z,100910.86
2023-04-16T10:08:52.738Z,100912.75
2023-04-16T10:11:24.990Z,100909.16
2023-04-16T10:13:56.644Z,100908.77
2023-04-16T10:16:28.491Z,100910.02
2023-04-16T10:19:00.645Z,100919.88
2023-04-16T10:21:34.504Z,100915.98
2023-04-16T10:24:06.900Z,100915.84
2023-04-16T10:26:39.124Z,100915.39
2023-04-16T10:29:11.258Z,100910.48
2023-04-16T10:31:43.883Z,100911.72
2023-04-16T10:34:16.049Z,100909.38
2023-04-16T10:36:53.131Z,100910.17
2023-04-16T10:39:26.211Z,100910.02
2023-04-16T10:42:11.451Z,100901.63
2023-04-16T10:44:45.225Z,100901.83
2023-04-16T10:47:17.786Z,100903.23
2023-04-16T10:49:50.754Z,100903.66
2023-04-16T10:52:24.669Z,100904.12
2023-04-16T10:55:00.291Z,100907.33
2023-04-16T10:57:32.557Z,100903.41
2023-04-16T11:00:04.352Z,100895.52
2023-04-16T11:02:35.967Z,100893.35
2023-04-16T11:05:09.671Z,100892.09
2023-04-16T11:07:49.847Z,100896.39
2023-04-16T11:10:21.763Z,100891.63
2023-04-16T11:12:55.252Z,100887.10
2023-04-16T11:15:31.166Z,100878.90
2023-04-16T11:18:04.124Z,100886.52
2023-04-16T11:20:36.537Z,100888.62
2023-04-16T11:23:13.804Z,100885.04
2023-04-16T11:25:45.319Z,100885.70
2023-04-16T11:28:16.235Z,100897.77
2023-04-16T11:30:47.572Z,100895.04
2023-04-16T11:33:18.882Z,100884.33
2023-04-16T11:36:00.146Z,100888.65
2023-04-16T11:38:41.830Z,100893.42
2023-04-16T11:41:20.692Z,100883.92
2023-04-16T11:43:52.048Z,100880.98
2023-04-16T11:46:27.682Z,100879.30
2023-04-16T11:49:00.022Z,100883.30
2023-04-16T11:51:32.750Z,100884.39
2023-04-16T11:54:05.216Z,100885.29
2023-04-16T11:56:38.636Z,100884.68
2023-04-16T11:59:12.865Z,100877.30
2023-04-16T12:01:47.474Z,100878.23
2023-04-16T12:04:20.975Z,100875.16
2023-04-16T12:07:12.427Z,100872.32
2023-04-16T12:09:46.236Z,100863.55
2023-04-16T12:12:34.933Z,100867.58
2023-04-16T12:15:08.321Z,100872.55
2023-04-16T12:17:42.181Z,100872.61
2023-04-16T12:20:15.617Z,100871.01
2023-04-16T12:22:49.947Z,100876.41
2023-04-16T12:25:21.564Z,100873.73
2023-04-16T12:27:55.369Z,100878.65
2023-04-16T12:30:27.874Z,100874.02
2023-04-16T12:33:17.163Z,100867.55
2023-04-16T12:35:49.484Z,100863.88
2023-04-16T12:38:22.837Z,100866.92
2023-04-16T12:40:57.423Z,100869.23
2023-04-16T12:43:29.133Z,100860.38
2023-04-16T12:46:02.220Z,100860.29
2023-04-16T12:48:35.202Z,100859.59
2023-04-16T12:51:07.784Z,100861.94
2023-04-16T12:53:39.321Z,100861.90
2023-04-16T12:56:10.744Z,100860.91
2023-04-16T12:58:42.378Z,100857.75
2023-04-16T13:01:13.763Z,100852.02
2023-04-16T13:03:45.738Z,100849.87
2023-04-16T13:06:17.977Z,100852.89
2023-04-16T13:08:49.723Z,100849.41
2023-04-16T13:11:22.186Z,100840.15
2023-04-16T13:13:53.991Z,100849.58
2023-04-16T13:16:26.483Z,100845.87
2023-04-16T13:18:57.784Z,100839.10
2023-04-16T13:21:29.362Z,100834.54
2023-04-16T13:24:02.203Z,100838.15
2023-04-16T13:26:34.090Z,100839.77
2023-04-16T13:29:06.617Z,100838.45
2023-04-16T13:31:38.546Z,100832.79
2023-04-16T13:34:10.394Z,100826.94
2023-04-16T13:36:42.204Z,100830.62
2023-04-16T13:39:13.686Z,100826.64
2023-04-16T13:41:45.320Z,100819.70
2023-04-16T13:44:19.172Z,100822.21
2023-04-16T13:46:55.154Z,100820.15
2023-04-16T13:49:26.665Z,100818.73
2023-04-16T13:51:58.427Z,100816.61
2023-04-16T13:54:29.887Z,100815.19
2023-04-16T13:57:01.748Z,100819.20
2023-04-16T13:59:33.333Z,100809.88
2023-04-16T14:02:05.197Z,100807.87
2023-04-16T14:04:36.914Z,100806.84
2023-04-16T14:07:08.426Z,100800.80
2023-04-16T14:09:39.659Z,100802.48
2023-04-16T14:12:11.595Z,100798.25
2023-04-16T14:14:42.792Z,100797.20
2023-04-16T14:17:14.070Z,100795.68
2023-04-16T14:19:45.643Z,100794.65
2023-04-16T14:22:18.090Z,100793.40
2023-04-16T14:24:49.651Z,100789.14
2023-04-16T14:27:20.993Z,100790.45
2023-04-16T14:29:53.109Z,100786.29
2023-04-16T14:32:24.379Z,100781.16
2023-04-16T14:34:56.189Z,100781.10
2023-04-16T14:37:27.978Z,100782.69
2023-04-16T14:39:59.426Z,100782.09
2023-04-16T14:42:31.155Z,100780.63
2023-04-16T14:45:03.312Z,100783.84
2023-04-16T14:47:35.256Z,100786.71
2023-04-16T14:50:08.217Z,100783.73
2023-04-16T14:52:39.744Z,100775.81
2023-04-16T14:55:11.476Z,100769.30
2023-04-16T14:57:43.002Z,100771.87
2023-04-16T15:00:18.905Z,100768.75
2023-04-16T15:02:51.107Z,100770.14
2023-04-16T15:05:23.069Z,100773.65
2023-04-16T15:07:55.215Z,100777.02
2023-04-16T15:10:27.540Z,100780.44
2023-04-16T15:12:59.176Z,100781.42
2023-04-16T15:15:30.658Z,100784.40
2023-04-16T15:18:02.337Z,100776.15
2023-04-16T15:20:33.862Z,100774.05
2023-04-16T15:23:05.458Z,100772.71
2023-04-16T15:25:37.053Z,100771.79
2023-04-16T15:28:08.707Z,100770.96
2023-04-16T15:30:41.341Z,100768.00
2023-04-16T15:33:15.612Z,100762.34
2023-04-16T15:35:47.135Z,100765.66
2023-04-16T15:38:18.885Z,100765.58
2023-04-16T15:40:50.503Z,100760.69
2023-04-16T15:43:22.811Z,100762.14
2023-04-16T15:45:54.326Z,100760.99
2023-04-16T15:48:26.345Z,100761.79
2023-04-16T15:50:57.921Z,100755.62
2023-04-16T15:53:29.497Z,100753.51
2023-04-16T15:56:01.390Z,100751.91
2023-04-16T15:58:32.891Z,100751.68
2023-04-16T16:01:04.877Z,100756.27
2023-04-16T16:03:37.708Z,100748.52
2023-04-16T16:06:09.896Z,100747.00
2023-04-16T16:08:41.480Z,100749.83
2023-04-16T16:11:13.225Z,100748.18
2023-04-16T16:13:44.938Z,100746.50
2023-04-16T16:16:16.852Z,100747.02
2023-04-16T16:18:48.826Z,100742.86
2023-04-16T16:21:21.071Z,100745.34
2023-04-16T16:23:52.368Z,100743.04
2023-04-16T16:26:24.309Z,100746.77
2023-04-16T16:28:57.318Z,100744.16
2023-04-16T16:31:29.020Z,100742.53
2023-04-16T16:34:01.402Z,100748.65
2023-04-16T16:36:36.885Z,100749.47
2023-04-16T16:39:08.511Z,100751.48
2023-04-16T16:41:42.199Z,100750.17
2023-04-16T16:44:14.554Z,100747.65
2023-04-16T16:46:47.118Z,100752.57
2023-04-16T16:49:19.250Z,100755.94
2023-04-16T16:51:51.205Z,100750.98
2023-04-16T16:54:23.009Z,100748.95
2023-04-16T16:56:55.246Z,100746.84
2023-04-16T16:59:27.289Z,100746.23
2023-04-16T17:01:59.137Z,100748.96
2023-04-16T17:04:30.962Z,100745.94
2023-04-16T17:07:02.523Z,100744.69
2023-04-16T17:09:34.455Z,100743.65
2023-04-16T17:12:07.363Z,100743.54
2023-04-16T17:14:38.702Z,100746.92
2023-04-16T17:17:10.445Z,100744.75
2023-04-16T17:19:42.244Z,100747.25
2023-04-16T17:22:13.809Z,100748.95
2023-04-16T17:24:45.630Z,100749.73
2023-04-16T17:27:17.785Z,100749.72
2023-04-16T17:29:49.657Z,100749.47
2023-04-16T17:32:21.154Z,100751.95
2023-04-16T17:34:52.792Z,100755.13
2023-04-16T17:37:24.451Z,100764.85
2023-04-16T17:39:56.289Z,100762.04
2023-04-16T17:42:28.971Z,100766.67
2023-04-16T17:45:00.933Z,100764.36
2023-04-16T17:47:32.982Z,100766.23
2023-04-16T17:50:04.935Z,100766.96
2023-04-16T17:52:37.664Z,100768.34
2023-04-16T17:55:10.364Z,100768.54
2023-04-16T17:57:42.246Z,100769.27
2023-04-16T18:00:16.451Z,100770.35
2023-04-16T18:02:48.148Z,100768.40
2023-04-16T18:05:20.891Z,100774.01
2023-04-16T18:07:52.535Z,100774.89
2023-04-16T18:10:24.823Z,100778.52
2023-04-16T18:12:56.250Z,100780.52
2023-04-16T18:15:27.957Z,100780.38
2023-04-16T18:18:00.005Z,100779.34
2023-04-16T18:20:31.638Z,100784.14
2023-04-16T18:23:04.096Z,100783.67
2023-04-16T18:25:36.378Z,100789.09
2023-04-16T18:28:09.431Z,100797.65
2023-04-16T18:30:41.311Z,100798.55
2023-04-16T18:35:48.052Z,100814.65
2023-04-16T18:38:19.594Z,100811.41
2023-04-16T18:40:51.300Z,100811.86
2023-04-16T18:43:22.607Z,100809.14
2023-04-16T18:45:53.730Z,100807.34
2023-04-16T18:48:25.387Z,100824.21
2023-04-16T18:50:59.095Z,100828.41
2023-04-16T18:53:31.077Z,100834.74
2023-04-16T18:56:02.867Z,100840.34
2023-04-16T18:58:34.606Z,100832.51
2023-04-16T19:01:11.140Z,100808.04
2023-04-16T19:03:43.159Z,100805.22
2023-04-16T19:06:16.103Z,100798.80
2023-04-16T19:08:47.578Z,100795.67
2023-04-16T19:11:19.611Z,100799.13
2023-04-16T19:13:51.634Z,100809.40
2023-04-16T19:16:23.533Z,100822.41
2023-04-16T19:18:55.551Z,100831.80
2023-04-16T19:21:27.661Z,100820.15
2023-04-16T19:23:59.440Z,100816.45
2023-04-16T19:26:31.097Z,100830.21
2023-04-16T19:29:02.433Z,100839.98
2023-04-16T19:31:34.863Z,100857.78
2023-04-16T19:34:09.210Z,100871.60
2023-04-16T19:36:40.789Z,100863.52
2023-04-16T19:39:12.828Z,100861.03
2023-04-16T19:41:44.219Z,100852.23
2023-04-16T19:44:15.780Z,100833.17
2023-04-16T19:46:47.543Z,100838.02
2023-04-16T19:49:18.943Z,100849.63
2023-04-16T19:51:50.492Z,100853.15
2023-04-16T19:54:21.829Z,100857.13
2023-04-16T19:56:53.332Z,100861.83
2023-04-16T19:59:28.176Z,100863.48
2023-04-16T20:02:00.467Z,100866.45
2023-04-16T20:04:31.859Z,100873.41
2023-04-16T20:07:03.804Z,100884.89
2023-04-16T20:09:35.318Z,100888.30
2023-04-16T20:12:07.223Z,100889.90
2023-04-16T20:14:39.012Z,100890.20
2023-04-16T20:17:10.421Z,100892.88
2023-04-16T20:19:41.951Z,100896.20
2023-04-16T20:22:13.223Z,100895.48
2023-04-16T20:24:47.835Z,100902.60
2023-04-16T20:27:19.824Z,100909.08
2023-04-16T20:29:52.025Z,100910.11
2023-04-16T20:32:23.771Z,100915.69
2023-04-16T20:34:56.780Z,100919.30
2023-04-16T20:37:30.130Z,100918.35
2023-04-16T20:40:01.962Z,100916.45
2023-04-16T20:42:33.504Z,100915.73
2023-04-16T20:45:05.448Z,100909.98
2023-04-16T20:47:37.218Z,100909.38
2023-04-16T20:50:11.367Z,100914.86
2023-04-16T20:52:43.479Z,100921.28
2023-04-16T20:55:15.169Z,100921.09
2023-04-16T20:57:46.581Z,100917.63
2023-04-16T21:00:19.374Z,100923.43
2023-04-16T21:02:51.006Z,100919.52
2023-04-16T21:05:24.030Z,100921.10
2023-04-16T21:07:55.932Z,100924.84
2023-04-16T21:10:27.677Z,100929.43
2023-04-16T21:12:59.298Z,100929.61
2023-04-16T21:15:32.074Z,100930.72
2023-04-16T21:18:03.104Z,100931.98
2023-04-16T21:20:35.417Z,100931.67
2023-04-16T21:23:07.436Z,100934.38
2023-04-16T21:25:38.857Z,100934.84
2023-04-16T21:28:10.451Z,100937.29
2023-04-16T21:30:42.348Z,100937.71
2023-04-16T21:33:16.222Z,100937.50
2023-04-16T21:35:51.776Z,100932.05
2023-04-16T21:38:23.610Z,100933.99
2023-04-16T21:40:56.140Z,100930.89
2023-04-16T21:43:29.224Z,100938.48
2023-04-16T21:46:01.176Z,100950.52
2023-04-16T21:48:33.199Z,100947.69
2023-04-16T21:51:08.547Z,100951.95
2023-04-16T21:53:40.114Z,100957.91
2023-04-16T21:56:12.122Z,100958.67
2023-04-16T21:58:43.691Z,100963.70
2023-04-16T22:01:15.648Z,100966.80
2023-04-16T22:03:50.994Z,100968.54
2023-04-16T22:06:22.454Z,100961.13
2023-04-16T22:08:53.844Z,100956.04
2023-04-16T22:11:25.427Z,100955.86
2023-04-16T22:13:58.057Z,100957.63
2023-04-16T22:16:29.787Z,100960.38
2023-04-16T22:19:01.154Z,100964.14
2023-04-16T22:21:32.778Z,100964.92
2023-04-16T22:24:04.667Z,100968.04
2023-04-16T22:26:36.270Z,100968.54
2023-04-16T22:29:08.020Z,100967.13
2023-04-16T22:31:39.396Z,100965.94
2023-04-16T22:34:10.716Z,100969.92
2023-04-16T22:36:42.608Z,100970.54
2023-04-16T22:39:14.755Z,100973.49
2023-04-16T22:41:46.638Z,100973.09
2023-04-16T22:44:18.132Z,100971.88
2023-04-16T22:46:49.631Z,100974.55
2023-04-16T22:49:21.386Z,100973.64
2023-04-16T22:51:53.071Z,100975.95
2023-04-16T22:54:24.585Z,100976.14
2023-04-16T22:56:56.853Z,100972.39
2023-04-16T22:59:28.711Z,100975.31
2023-04-16T23:02:00.505Z,100974.24
2023-04-16T23:04:33.367Z,100974.17
2023-04-16T23:07:04.911Z,100971.29
2023-04-16T23:09:35.980Z,100972.64
2023-04-16T23:12:09.154Z,100970.41
2023-04-16T23:14:46.247Z,100970.58
2023-04-16T23:17:17.545Z,100968.17
2023-04-16T23:19:49.027Z,100966.98
2023-04-16T23:22:20.552Z,100968.21
2023-04-16T23:24:51.933Z,100966.54
2023-04-16T23:27:23.453Z,100968.23
2023-04-16T23:29:54.940Z,100965.65
2023-04-16T23:32:26.793Z,100971.64
2023-04-16T23:34:58.014Z,100972.29
2023-04-16T23:37:29.344Z,100972.23
2023-04-16T23:40:01.022Z,100971.72
2023-04-16T23:42:32.926Z,100971.86
2023-04-16T23:45:05.779Z,100970.96
2023-04-16T23:47:37.315Z,100971.91
2023-04-16T23:50:10.354Z,100972.10
2023-04-16T23:52:41.689Z,100971.89
2023-04-16T23:55:13.473Z,100971.23
2023-04-16T23:57:45.418Z,100973.06
